Time;durP1;ratioP1;P1;durP2;ratioP2;P2;SDS_P1;SDS_P2;PMS_P1;PMS_P2;Temp;Humidity;BMP_temperature;BMP_pressure;BME280_temperature;BME280_humidity;BME280_pressure;Samples;Min_cycle;Max_cycle;Signal;HPM_P1;HPM_P2
2022/06/04 00:00:10;;;;;;;;;;;;;;;29.08;37.96;101026.50;5056377;28;994;-42
2022/06/04 00:02:42;;;;;;;;;;;;;;;29.07;38.01;101030.25;5055368;28;978;-42
2022/06/04 00:05:08;;;;;;;;;;;;;;;29.07;37.86;101029.41;5056453;28;766;-43
2022/06/04 00:07:33;;;;;;;;;;;;;;;29.08;38.21;101025.66;5056144;28;1905;-44
2022/06/04 00:15:29;;;;;;;;;;;;;;;29.07;37.98;101026.69;5055741;28;907;-42
2022/06/04 00:17:54;;;;;;;;;;;;;;;29.08;38.08;101033.78;5055478;28;825;-42
2022/06/04 00:20:20;;;;;;;;;;;;;;;29.10;37.82;101034.44;5037267;28;873;-43
2022/06/04 00:22:46;;;;;;;;;;;;;;;29.15;38.18;101031.16;5055748;28;838;-42
2022/06/04 00:25:12;;;;;;;;;;;;;;;29.14;38.19;101029.47;5056004;28;774;-41
2022/06/04 00:27:38;;;;;;;;;;;;;;;29.12;38.33;101034.25;5038235;28;1963;-43
2022/06/04 00:30:05;;;;;;;;;;;;;;;29.07;38.04;101034.81;5055705;28;846;-43
2022/06/04 00:32:30;;;;;;;;;;;;;;;29.14;38.20;101027.63;5054253;28;967;-42
2022/06/04 00:34:56;;;;;;;;;;;;;;;29.13;38.02;101027.81;5055862;28;1063;-42
2022/06/04 00:37:21;;;;;;;;;;;;;;;29.13;38.02;101027.81;5055454;28;896;-42
2022/06/04 00:39:46;;;;;;;;;;;;;;;29.08;37.89;101023.78;5055346;28;794;-42
2022/06/04 00:42:16;;;;;;;;;;;;;;;29.16;38.22;101019.31;5055564;28;833;-42
2022/06/04 00:45:08;;;;;;;;;;;;;;;29.18;38.07;101023.50;5055321;28;860;-42
2022/06/04 00:47:36;;;;;;;;;;;;;;;29.17;37.94;101019.13;5004353;28;1909;-42
2022/06/04 00:50:01;;;;;;;;;;;;;;;29.05;38.42;101023.31;5035872;28;750;-44
2022/06/04 00:52:27;;;;;;;;;;;;;;;29.06;38.75;101019.59;5036012;28;869;-44
2022/06/04 00:54:52;;;;;;;;;;;;;;;29.03;38.75;101020.81;5035600;28;890;-44
2022/06/04 00:57:17;;;;;;;;;;;;;;;29.05;38.73;101015.19;5027603;28;853;-46
2022/06/04 00:59:46;;;;;;;;;;;;;;;29.05;39.07;101004.38;5055631;28;877;-44
2022/06/04 01:02:35;;;;;;;;;;;;;;;29.05;39.01;101005.22;5070612;28;896;-45
2022/06/04 01:05:09;;;;;;;;;;;;;;;29.05;39.20;100998.94;5061007;28;1113;-44
2022/06/04 01:07:55;;;;;;;;;;;;;;;29.08;38.96;100993.16;5060857;28;1963;-45
2022/06/04 01:10:33;;;;;;;;;;;;;;;28.99;38.54;100989.72;5048957;28;928;-44
2022/06/04 01:13:04;;;;;;;;;;;;;;;29.03;38.98;100984.78;5058889;28;726;-44
2022/06/04 01:15:30;;;;;;;;;;;;;;;29.05;39.15;100985.41;5056473;28;766;-43
2022/06/04 01:18:02;;;;;;;;;;;;;;;29.00;38.77;100994.13;5059120;28;990;-44
2022/06/04 01:20:37;;;;;;;;;;;;;;;29.01;39.10;100997.66;5058544;28;837;-44
2022/06/04 01:23:07;;;;;;;;;;;;;;;29.01;38.86;100993.06;5059002;28;901;-44
2022/06/04 01:25:56;;;;;;;;;;;;;;;29.03;38.90;100996.44;5057872;28;777;-44
2022/06/04 01:28:21;;;;;;;;;;;;;;;29.05;38.63;100990.81;5050475;28;1898;-44
2022/06/04 01:30:50;;;;;;;;;;;;;;;29.04;38.88;100997.28;5063108;28;860;-45
2022/06/04 01:33:21;;;;;;;;;;;;;;;29.01;38.77;101003.09;5060479;28;1108;-45
2022/06/04 01:35:53;;;;;;;;;;;;;;;29.02;38.56;101000.19;5066323;28;836;-45
2022/06/04 01:38:26;;;;;;;;;;;;;;;28.95;38.50;100999.22;5058546;28;850;-43
2022/06/04 01:41:08;;;;;;;;;;;;;;;28.99;38.01;101008.69;5039961;28;793;-43
2022/06/04 01:43:47;;;;;;;;;;;;;;;29.04;38.45;101005.41;5058914;28;802;-43
2022/06/04 01:46:18;;;;;;;;;;;;;;;29.01;38.35;101009.31;5046719;28;1125;-43
2022/06/04 01:48:44;;;;;;;;;;;;;;;29.00;37.94;101004.94;5052641;28;1913;-43
2022/06/04 01:51:09;;;;;;;;;;;;;;;29.06;38.39;101001.47;5058190;28;814;-43
2022/06/04 01:53:36;;;;;;;;;;;;;;;29.07;38.56;101003.16;5056216;28;853;-43
2022/06/04 01:56:03;;;;;;;;;;;;;;;29.08;38.54;101002.13;5056870;28;889;-43
2022/06/04 01:58:30;;;;;;;;;;;;;;;29.06;38.36;101004.19;5057332;28;781;-43
2022/06/04 02:00:59;;;;;;;;;;;;;;;29.08;38.33;101007.53;5058321;28;865;-43
2022/06/04 02:03:30;;;;;;;;;;;;;;;29.08;38.36;100995.84;5040658;28;773;-43
2022/06/04 02:06:15;;;;;;;;;;;;;;;29.06;38.28;101000.66;5040174;28;1008;-43
2022/06/04 02:08:43;;;;;;;;;;;;;;;29.04;37.78;101003.56;5056955;28;1906;-43
2022/06/04 02:11:16;;;;;;;;;;;;;;;29.07;38.06;101000.47;5040627;28;885;-44
2022/06/04 02:13:41;;;;;;;;;;;;;;;29.01;38.61;101006.59;5057471;28;892;-44
2022/06/04 02:16:08;;;;;;;;;;;;;;;29.09;38.36;100984.00;5057504;28;842;-43
2022/06/04 02:18:34;;;;;;;;;;;;;;;29.09;38.52;100989.44;5040569;28;810;-42
2022/06/04 02:20:59;;;;;;;;;;;;;;;29.04;38.40;100981.03;5039625;28;874;-43
2022/06/04 02:23:25;;;;;;;;;;;;;;;29.05;38.10;100993.53;5057811;28;891;-43
2022/06/04 02:25:51;;;;;;;;;;;;;;;29.09;38.31;100984.00;5057680;28;864;-44
2022/06/04 02:28:16;;;;;;;;;;;;;;;29.08;38.48;100988.59;5057426;28;1890;-43
2022/06/04 02:31:13;;;;;;;;;;;;;;;29.06;38.33;100989.81;5057023;28;838;-45
2022/06/04 02:33:44;;;;;;;;;;;;;;;29.01;38.53;100982.22;5013277;28;1064;-43
2022/06/04 02:36:19;;;;;;;;;;;;;;;29.05;38.28;100974.56;5057660;28;786;-44
2022/06/04 02:38:49;;;;;;;;;;;;;;;29.03;38.19;100971.25;5056908;28;853;-44
2022/06/04 02:41:22;;;;;;;;;;;;;;;29.04;38.49;100967.50;5039981;28;751;-45
2022/06/04 02:44:07;;;;;;;;;;;;;;;29.00;38.15;100969.75;5038980;28;1115;-44
2022/06/04 02:46:37;;;;;;;;;;;;;;;29.07;38.30;100959.81;5050033;28;1296;-44
2022/06/04 02:49:05;;;;;;;;;;;;;;;29.04;38.38;100962.94;5077299;28;1922;-44
2022/06/04 02:51:35;;;;;;;;;;;;;;;29.03;38.44;100960.41;5069352;28;889;-44
2022/06/04 02:54:05;;;;;;;;;;;;;;;29.07;38.35;100953.56;5055513;28;978;-44
2022/06/04 02:56:31;;;;;;;;;;;;;;;29.04;38.38;100954.81;5057310;28;793;-44
2022/06/04 02:58:58;;;;;;;;;;;;;;;29.05;38.57;100964.59;5057064;28;798;-46
2022/06/04 03:01:23;;;;;;;;;;;;;;;29.07;38.64;100959.81;5054154;28;904;-44
2022/06/04 03:03:49;;;;;;;;;;;;;;;28.99;37.92;100969.94;5056776;28;904;-45
2022/06/04 03:06:22;;;;;;;;;;;;;;;28.94;38.55;100963.19;5056593;28;822;-44
2022/06/04 03:08:47;;;;;;;;;;;;;;;29.06;38.19;100960.84;5056955;28;1902;-46
2022/06/04 03:11:12;;;;;;;;;;;;;;;29.00;37.76;100958.91;5055044;28;1026;-46
2022/06/04 03:13:38;;;;;;;;;;;;;;;29.03;38.20;100957.69;5056580;28;963;-44
2022/06/04 03:16:03;;;;;;;;;;;;;;;29.03;37.50;100968.53;5056716;28;821;-45
2022/06/04 03:18:28;;;;;;;;;;;;;;;28.70;38.93;100965.19;5056329;28;857;-48
2022/06/04 03:20:53;;;;;;;;;;;;;;;28.29;41.24;100955.66;5056619;28;882;-51
2022/06/04 03:23:19;;;;;;;;;;;;;;;28.21;41.10;100958.47;5056631;28;972;-50
2022/06/04 03:25:44;;;;;;;;;;;;;;;28.17;41.86;100951.72;5055909;28;828;-47
2022/06/04 03:28:09;;;;;;;;;;;;;;;28.05;42.33;100959.44;5056492;28;1890;-53
2022/06/04 03:30:35;;;;;;;;;;;;;;;28.04;41.24;100972.16;5054468;28;1725;-48
2022/06/04 03:33:00;;;;;;;;;;;;;;;28.20;40.67;100970.28;5056089;28;1243;-48
2022/06/04 03:35:26;;;;;;;;;;;;;;;28.03;41.79;100970.47;5056087;28;1001;-47
2022/06/04 03:37:51;;;;;;;;;;;;;;;28.01;41.62;100977.09;5055449;28;1396;-50
2022/06/04 03:40:16;;;;;;;;;;;;;;;26.87;45.63;100972.06;5056113;28;1033;-47
2022/06/04 03:42:42;;;;;;;;;;;;;;;27.30;44.58;100970.84;5055860;28;1116;-49
2022/06/04 03:45:08;;;;;;;;;;;;;;;28.03;42.62;100972.34;5055505;28;1013;-50
2022/06/04 03:47:36;;;;;;;;;;;;;;;28.05;41.63;100978.38;5036013;28;1909;-48
2022/06/04 03:50:02;;;;;;;;;;;;;;;27.88;43.74;100994.75;5056050;28;1022;-47
2022/06/04 03:52:28;;;;;;;;;;;;;;;28.16;42.07;100993.34;5055426;28;1152;-63
2022/06/04 03:54:53;;;;;;;;;;;;;;;28.41;41.06;100996.63;5055466;28;970;-50
2022/06/04 03:57:37;;;;;;;;;;;;;;;28.46;39.44;101004.22;5056051;28;1057;-47
2022/06/04 04:00:07;;;;;;;;;;;;;;;28.49;38.58;101014.66;5052121;28;950;-47
2022/06/04 04:02:33;;;;;;;;;;;;;;;28.56;38.16;101023.72;5054282;28;1315;-52
2022/06/04 04:04:58;;;;;;;;;;;;;;;26.85;42.15;101026.22;5055794;28;1059;-50
2022/06/04 04:07:24;;;;;;;;;;;;;;;24.75;46.15;101026.16;5051812;28;985;-51
2022/06/04 04:09:49;;;;;;;;;;;;;;;23.61;48.91;101016.03;5053972;28;1902;-51
2022/06/04 04:12:15;;;;;;;;;;;;;;;23.10;49.96;101013.78;5054056;28;961;-52
2022/06/04 04:14:40;;;;;;;;;;;;;;;22.81;50.24;101002.19;5053586;28;1156;-52
2022/06/04 04:17:05;;;;;;;;;;;;;;;22.67;50.20;101003.50;5055308;28;1022;-50
2022/06/04 04:19:30;;;;;;;;;;;;;;;22.46;50.56;101006.38;5055236;28;1181;-51
2022/06/04 04:21:56;;;;;;;;;;;;;;;22.28;50.68;101012.50;5054281;28;1100;-50
2022/06/04 04:24:21;;;;;;;;;;;;;;;21.64;53.98;101020.91;5037213;28;1090;-48
2022/06/04 04:26:46;;;;;;;;;;;;;;;21.65;54.03;101018.09;5055709;28;1202;-52
2022/06/04 04:29:12;;;;;;;;;;;;;;;21.66;53.80;101016.28;5017401;28;1894;-49
2022/06/04 04:31:37;;;;;;;;;;;;;;;21.49;54.14;101017.81;5054995;28;1017;-52
2022/06/04 04:34:03;;;;;;;;;;;;;;;21.39;54.85;101021.31;5054703;28;911;-51
2022/06/04 04:36:30;;;;;;;;;;;;;;;21.31;54.08;101018.47;5055860;28;1131;-49
2022/06/04 04:38:58;;;;;;;;;;;;;;;21.23;53.81;101029.88;5058747;28;1218;-50
2022/06/04 04:41:23;;;;;;;;;;;;;;;21.15;54.53;101027.03;5059297;28;1057;-50
2022/06/04 04:43:48;;;;;;;;;;;;;;;21.07;54.74;101033.03;5058774;28;993;-46
2022/06/04 04:46:14;;;;;;;;;;;;;;;20.99;55.45;101036.41;5058274;28;898;-48
2022/06/04 04:48:39;;;;;;;;;;;;;;;20.85;55.57;101031.38;5058690;28;1898;-46
2022/06/04 04:51:05;;;;;;;;;;;;;;;20.64;56.57;101032.25;5058791;28;1162;-47
2022/06/04 04:53:30;;;;;;;;;;;;;;;20.62;56.58;101040.41;5059293;28;1048;-47
2022/06/04 04:55:56;;;;;;;;;;;;;;;20.45;57.02;101033.00;5058928;28;1242;-48
2022/06/04 04:58:21;;;;;;;;;;;;;;;20.09;57.49;101035.97;5058632;28;1117;-53
2022/06/04 05:00:46;;;;;;;;;;;;;;;20.11;57.43;101032.22;5051929;28;974;-54
2022/06/04 05:03:12;;;;;;;;;;;;;;;19.78;58.21;101040.19;5058800;28;1013;-51
2022/06/04 05:05:37;;;;;;;;;;;;;;;19.86;58.53;101033.38;5058048;28;1674;-52
2022/06/04 05:08:02;;;;;;;;;;;;;;;19.64;59.16;101036.00;5058661;28;1960;-50
2022/06/04 05:10:28;;;;;;;;;;;;;;;19.69;59.07;101040.94;5058943;28;1226;-49
2022/06/04 05:12:53;;;;;;;;;;;;;;;19.37;60.03;101047.09;5058078;28;889;-52
2022/06/04 05:15:19;;;;;;;;;;;;;;;19.33;60.09;101055.31;5051697;28;939;-45
2022/06/04 05:17:44;;;;;;;;;;;;;;;19.38;60.07;101057.63;5058522;28;1449;-48
2022/06/04 05:20:10;;;;;;;;;;;;;;;19.45;59.93;101061.50;5058060;28;1095;-49
2022/06/04 05:22:35;;;;;;;;;;;;;;;19.51;60.03;101052.16;5056951;28;1129;-44
2022/06/04 05:25:01;;;;;;;;;;;;;;;19.70;59.28;101054.16;5057860;28;955;-52
2022/06/04 05:27:27;;;;;;;;;;;;;;;19.55;59.97;101048.25;5058465;28;1100;-53
2022/06/04 05:29:52;;;;;;;;;;;;;;;20.95;55.99;101060.88;5057794;28;1909;-48
2022/06/04 05:32:17;;;;;;;;;;;;;;;22.92;50.18;101060.16;5058217;28;871;-51
2022/06/04 05:34:42;;;;;;;;;;;;;;;23.90;47.64;101055.28;5057465;28;878;-50
2022/06/04 05:37:08;;;;;;;;;;;;;;;24.42;46.40;101064.44;5057362;28;1473;-53
2022/06/04 05:39:34;;;;;;;;;;;;;;;24.77;45.58;101069.03;5058467;28;1216;-52
2022/06/04 05:41:59;;;;;;;;;;;;;;;25.02;45.10;101074.59;5057924;28;1083;-53
2022/06/04 05:44:25;;;;;;;;;;;;;;;25.23;45.13;101066.09;5057657;28;1084;-55
2022/06/04 05:46:50;;;;;;;;;;;;;;;25.40;44.76;101061.63;5057860;28;1251;-58
2022/06/04 05:49:15;;;;;;;;;;;;;;;25.51;44.69;101068.53;5055859;28;1980;-53
2022/06/04 05:51:41;;;;;;;;;;;;;;;25.70;43.94;101068.44;5057822;28;1084;-58
2022/06/04 05:54:06;;;;;;;;;;;;;;;25.82;44.07;101082.44;5057763;28;1160;-56
2022/06/04 05:56:33;;;;;;;;;;;;;;;25.91;43.76;101084.97;5057163;28;1009;-55
2022/06/04 05:58:59;;;;;;;;;;;;;;;26.05;43.68;101077.25;5039940;28;1041;-52
2022/06/04 06:01:24;;;;;;;;;;;;;;;26.14;43.23;101078.09;5057351;28;991;-53
2022/06/04 06:03:50;;;;;;;;;;;;;;;26.24;43.12;101081.44;5057182;28;895;-55
2022/06/04 06:06:21;;;;;;;;;;;;;;;26.32;42.81;101077.91;5056968;28;1214;-57
2022/06/04 06:08:47;;;;;;;;;;;;;;;26.36;43.00;101073.06;5057826;28;1910;-53
2022/06/04 06:11:13;;;;;;;;;;;;;;;26.40;42.71;101077.94;5057137;28;1136;-61
2022/06/04 06:13:39;;;;;;;;;;;;;;;26.59;40.34;101078.56;5057352;28;993;-51
2022/06/04 06:16:06;;;;;;;;;;;;;;;26.72;41.06;101082.59;5056916;28;1163;-53
2022/06/04 06:18:32;;;;;;;;;;;;;;;26.93;41.47;101083.88;5057142;28;1044;-61
2022/06/04 06:20:58;;;;;;;;;;;;;;;26.82;38.73;101082.41;5056964;28;1156;-51
2022/06/04 06:23:24;;;;;;;;;;;;;;;26.87;38.48;101085.44;5057527;28;1007;-52
2022/06/04 06:25:49;;;;;;;;;;;;;;;26.92;39.95;101083.06;5050117;28;1029;-57
2022/06/04 06:28:15;;;;;;;;;;;;;;;27.03;40.93;101089.97;5056847;28;1969;-55
2022/06/04 06:30:40;;;;;;;;;;;;;;;21.34;50.13;101081.56;5057436;28;985;-52
2022/06/04 06:33:05;;;;;;;;;;;;;;;18.81;51.71;101066.44;5056841;28;1037;-50
2022/06/04 06:35:31;;;;;;;;;;;;;;;18.10;51.91;101062.81;5056989;28;1064;-53
2022/06/04 06:37:56;;;;;;;;;;;;;;;18.79;56.25;101067.53;5057212;28;1079;-56
2022/06/04 06:40:21;;;;;;;;;;;;;;;19.04;57.58;101068.28;5054526;28;1486;-59
2022/06/04 06:42:46;;;;;;;;;;;;;;;19.17;58.14;101078.84;5056570;28;957;-57
2022/06/04 06:45:12;;;;;;;;;;;;;;;18.39;59.26;100979.06;5056508;28;1215;-54
2022/06/04 06:47:37;;;;;;;;;;;;;;;19.10;59.99;101065.19;5056838;28;1909;-58
2022/06/04 06:50:03;;;;;;;;;;;;;;;19.05;60.46;101068.16;5056214;28;1025;-54
2022/06/04 06:52:28;;;;;;;;;;;;;;;19.06;61.11;101069.88;5056560;28;986;-55
2022/06/04 06:54:53;;;;;;;;;;;;;;;18.94;61.55;101061.00;5056358;28;1064;-57
2022/06/04 06:57:19;;;;;;;;;;;;;;;18.99;61.67;101063.31;5056108;28;1009;-57
2022/06/04 06:59:47;;;;;;;;;;;;;;;18.95;61.81;101060.03;5056585;28;1111;-57
2022/06/04 07:02:12;;;;;;;;;;;;;;;18.86;62.26;101058.09;5051907;28;1021;-55
2022/06/04 07:04:37;;;;;;;;;;;;;;;18.82;62.62;101059.28;5049055;28;1013;-52
2022/06/04 07:07:03;;;;;;;;;;;;;;;18.76;62.96;101051.78;5053579;28;982;-52
2022/06/04 07:09:32;;;;;;;;;;;;;;;19.03;62.46;101051.44;5050068;28;1922;-53
2022/06/04 07:11:58;;;;;;;;;;;;;;;18.76;63.25;101054.44;5055544;28;1065;-55
2022/06/04 07:14:23;;;;;;;;;;;;;;;18.60;63.64;101047.66;5054235;28;1033;-58
2022/06/04 07:16:49;;;;;;;;;;;;;;;18.63;63.49;101044.75;5037373;28;988;-57
2022/06/04 07:19:14;;;;;;;;;;;;;;;19.26;61.72;101039.94;5054576;28;1151;-50
2022/06/04 07:21:39;;;;;;;;;;;;;;;21.87;52.88;101048.31;5056710;28;1076;-52
2022/06/04 07:24:05;;;;;;;;;;;;;;;23.28;49.05;101037.97;5048017;28;993;-52
2022/06/04 07:26:30;;;;;;;;;;;;;;;23.95;46.91;101044.06;5052408;28;1049;-54
2022/06/04 07:28:55;;;;;;;;;;;;;;;24.26;45.78;101032.91;5053410;28;1898;-50
2022/06/04 07:31:21;;;;;;;;;;;;;;;24.43;45.31;101030.34;5056045;28;974;-54
2022/06/04 07:33:46;;;;;;;;;;;;;;;24.68;44.64;101039.41;5054097;28;1186;-49
2022/06/04 07:36:18;;;;;;;;;;;;;;;24.83;44.32;101028.91;5055485;28;1151;-53
2022/06/04 07:38:44;;;;;;;;;;;;;;;24.85;44.27;101027.88;5054490;28;1156;-56
2022/06/04 07:41:16;;;;;;;;;;;;;;;24.87;43.98;101029.44;5044828;28;986;-55
2022/06/04 07:43:42;;;;;;;;;;;;;;;24.93;43.96;101031.50;5050263;28;989;-57
2022/06/04 07:46:07;;;;;;;;;;;;;;;25.06;43.33;101031.03;5051028;28;907;-58
2022/06/04 07:48:32;;;;;;;;;;;;;;;25.16;43.37;101030.91;5051753;28;1980;-58
2022/06/04 07:50:58;;;;;;;;;;;;;;;25.30;42.89;101026.75;5033842;28;1010;-54
2022/06/04 07:53:23;;;;;;;;;;;;;;;25.42;42.66;101027.25;5052211;28;1184;-57
2022/06/04 07:55:48;;;;;;;;;;;;;;;25.51;42.20;101030.81;5053344;28;1008;-59
2022/06/04 07:58:13;;;;;;;;;;;;;;;25.57;42.23;101023.94;5051417;28;939;-60
2022/06/04 08:00:39;;;;;;;;;;;;;;;25.66;42.31;101027.50;5054484;28;1009;-62
2022/06/04 08:03:05;;;;;;;;;;;;;;;25.72;42.22;101021.47;5054526;28;1049;-56
2022/06/04 08:05:30;;;;;;;;;;;;;;;25.85;41.73;101030.91;5049376;28;990;-55
2022/06/04 08:07:55;;;;;;;;;;;;;;;25.84;41.61;101018.44;5049291;28;1965;-59
2022/06/04 08:10:21;;;;;;;;;;;;;;;25.99;41.76;101018.63;5046062;28;1021;-56
2022/06/04 08:12:47;;;;;;;;;;;;;;;26.06;41.47;101024.19;5049191;28;986;-57
2022/06/04 08:15:14;;;;;;;;;;;;;;;26.13;41.53;101020.63;5050941;28;946;-60
2022/06/04 08:17:39;;;;;;;;;;;;;;;26.30;40.90;101023.31;5052244;28;1016;-57
2022/06/04 08:20:05;;;;;;;;;;;;;;;26.27;41.53;101027.19;5052776;28;1053;-57
2022/06/04 08:22:31;;;;;;;;;;;;;;;26.27;41.13;101020.94;5053360;28;874;-59
2022/06/04 08:24:56;;;;;;;;;;;;;;;26.24;41.47;101022.13;5055572;28;1012;-55
2022/06/04 08:27:23;;;;;;;;;;;;;;;26.27;41.38;101026.34;5054465;28;1131;-53
2022/06/04 08:29:48;;;;;;;;;;;;;;;26.29;41.21;101019.75;5055647;28;1963;-55
2022/06/04 08:32:14;;;;;;;;;;;;;;;26.43;41.42;101017.41;5054595;28;1022;-59
2022/06/04 08:34:39;;;;;;;;;;;;;;;26.48;41.31;101019.59;5055541;28;989;-55
2022/06/04 08:37:07;;;;;;;;;;;;;;;26.46;41.05;101019.75;5051136;28;1046;-58
2022/06/04 08:39:32;;;;;;;;;;;;;;;26.56;41.07;101010.66;5048374;28;1009;-58
2022/06/04 08:42:10;;;;;;;;;;;;;;;26.78;40.83;101004.50;5052801;28;1006;-56
2022/06/04 08:44:39;;;;;;;;;;;;;;;26.60;41.23;101009.28;5053308;28;1148;-60
2022/06/04 08:47:15;;;;;;;;;;;;;;;26.86;40.70;101009.00;5054033;28;1536;-59
2022/06/04 08:49:47;;;;;;;;;;;;;;;26.78;41.20;101007.19;5053562;28;1975;-55
2022/06/04 08:52:19;;;;;;;;;;;;;;;26.84;41.39;101012.91;5055018;28;1084;-56
2022/06/04 08:57:36;;;;;;;;;;;;;;;26.99;41.16;101005.75;5049593;28;1161;-60
2022/06/04 09:00:20;;;;;;;;;;;;;;;26.92;41.14;101004.78;5036275;28;1161;-57
2022/06/04 09:02:54;;;;;;;;;;;;;;;26.88;41.54;101008.84;5048548;28;950;-60
2022/06/04 09:05:19;;;;;;;;;;;;;;;26.88;41.47;101014.22;5045072;28;990;-53
2022/06/04 09:07:46;;;;;;;;;;;;;;;26.92;41.57;100999.38;5054199;28;1959;-54
2022/06/04 09:10:19;;;;;;;;;;;;;;;26.96;41.33;100999.88;5030179;28;1116;-54
2022/06/04 09:12:55;;;;;;;;;;;;;;;26.82;41.42;100998.75;5053559;28;1072;-56
2022/06/04 09:15:27;;;;;;;;;;;;;;;26.99;41.37;100991.41;5031275;28;1164;-55
2022/06/04 09:17:53;;;;;;;;;;;;;;;27.10;40.60;100982.97;5052796;28;1005;-52
2022/06/04 09:20:27;;;;;;;;;;;;;;;27.10;41.48;100980.25;5052970;28;1184;-59
2022/06/04 09:22:54;;;;;;;;;;;;;;;27.20;41.06;100988.13;5055103;28;1005;-54
2022/06/04 09:25:22;;;;;;;;;;;;;;;27.25;40.69;100988.44;5040381;28;1013;-59
2022/06/04 09:27:50;;;;;;;;;;;;;;;27.18;40.89;100984.75;5058721;28;1898;-63
2022/06/04 09:30:21;;;;;;;;;;;;;;;27.29;40.90;100990.78;5057711;28;1024;-59
2022/06/04 09:32:59;;;;;;;;;;;;;;;27.29;41.17;100988.09;5057747;28;1053;-56
2022/06/04 09:35:29;;;;;;;;;;;;;;;27.26;41.13;100984.72;5053469;28;1069;-57
2022/06/04 09:37:54;;;;;;;;;;;;;;;27.17;41.00;100979.53;5038608;28;1025;-60
2022/06/04 09:40:27;;;;;;;;;;;;;;;27.17;41.47;100982.25;5038968;28;934;-58
2022/06/04 09:43:05;;;;;;;;;;;;;;;27.32;41.17;100982.31;5058425;28;1128;-56
2022/06/04 09:45:31;;;;;;;;;;;;;;;27.28;41.42;100989.94;5056353;28;946;-56
2022/06/04 09:47:56;;;;;;;;;;;;;;;27.25;41.74;100983.03;5057375;28;1906;-60
2022/06/04 09:50:21;;;;;;;;;;;;;;;26.99;38.15;100981.44;5055990;28;1092;-53
2022/06/04 09:52:55;;;;;;;;;;;;;;;27.07;37.89;100972.50;5056596;28;1429;-55
2022/06/04 09:55:21;;;;;;;;;;;;;;;27.11;40.23;100981.09;5056903;28;990;-56
2022/06/04 09:58:00;;;;;;;;;;;;;;;27.13;40.23;100977.19;5040296;28;1073;-51
2022/06/04 10:00:29;;;;;;;;;;;;;;;27.24;40.29;100972.41;5047850;28;1033;-58
2022/06/04 10:02:58;;;;;;;;;;;;;;;27.34;40.36;100974.88;5052758;28;1021;-59
2022/06/04 10:05:24;;;;;;;;;;;;;;;27.37;40.45;100963.72;5050606;28;1144;-56
2022/06/04 10:07:50;;;;;;;;;;;;;;;27.01;43.72;100968.66;5035293;28;1882;-56
2022/06/04 10:10:21;;;;;;;;;;;;;;;21.33;51.89;100972.84;5055240;28;1183;-56
2022/06/04 10:15:41;;;;;;;;;;;;;;;18.17;52.39;100961.22;5059471;28;1298;-54
2022/06/04 10:18:16;;;;;;;;;;;;;;;17.65;51.39;100967.66;5059756;28;938;-59
2022/06/04 10:20:41;;;;;;;;;;;;;;;16.82;51.75;100960.25;5056871;28;1025;-60
2022/06/04 10:23:11;;;;;;;;;;;;;;;20.38;46.47;100960.53;5051414;28;956;-55
2022/06/04 10:25:52;;;;;;;;;;;;;;;21.13;47.38;100957.63;5039417;28;998;-58
2022/06/04 10:28:37;;;;;;;;;;;;;;;19.28;56.53;100952.66;5053743;28;1906;-57
2022/06/04 10:31:18;;;;;;;;;;;;;;;20.88;49.88;100956.25;5041746;28;1617;-60
2022/06/04 10:33:46;;;;;;;;;;;;;;;21.33;47.51;100954.13;5053502;28;1401;-56
2022/06/04 10:36:21;;;;;;;;;;;;;;;21.41;46.74;100949.78;5055123;28;1043;-49
2022/06/04 10:38:46;;;;;;;;;;;;;;;21.48;45.47;100955.41;5057134;28;1013;-57
2022/06/04 10:41:13;;;;;;;;;;;;;;;21.33;44.49;100960.31;5055500;28;1138;-51
2022/06/04 10:43:44;;;;;;;;;;;;;;;21.25;43.43;100944.13;5039248;28;954;-58
2022/06/04 10:46:26;;;;;;;;;;;;;;;21.24;42.69;100939.72;5045591;28;962;-58
2022/06/04 10:48:58;;;;;;;;;;;;;;;20.60;44.05;100942.63;5045511;28;1963;-56
2022/06/04 10:51:45;;;;;;;;;;;;;;;19.35;46.88;100945.00;5037901;28;1234;-53
2022/06/04 10:54:10;;;;;;;;;;;;;;;18.91;47.46;100940.44;5056620;28;962;-56
2022/06/04 10:56:43;;;;;;;;;;;;;;;18.45;48.28;100940.47;5047632;28;989;-53
2022/06/04 10:59:12;;;;;;;;;;;;;;;18.32;48.55;100938.72;5052893;28;1057;-52
2022/06/04 11:01:43;;;;;;;;;;;;;;;18.27;48.44;100943.56;5048755;28;1182;-52
2022/06/04 11:04:17;;;;;;;;;;;;;;;18.16;48.47;100943.53;5054655;28;1009;-52
2022/06/04 11:06:45;;;;;;;;;;;;;;;17.98;48.50;100949.28;5055560;28;989;-51
2022/06/04 11:09:12;;;;;;;;;;;;;;;17.78;49.10;100948.13;5056273;28;1902;-51
2022/06/04 11:11:39;;;;;;;;;;;;;;;17.73;49.68;100945.81;5032546;28;1180;-57
2022/06/04 11:14:16;;;;;;;;;;;;;;;17.73;49.57;100948.47;5054360;28;862;-53
2022/06/04 11:16:52;;;;;;;;;;;;;;;17.62;50.34;100942.16;5051018;28;1061;-57
2022/06/04 11:19:24;;;;;;;;;;;;;;;17.64;50.40;100947.34;5038698;28;1076;-59
2022/06/04 11:22:22;;;;;;;;;;;;;;;17.79;50.52;100934.72;5030667;28;1128;-51
2022/06/04 11:24:48;;;;;;;;;;;;;;;17.65;50.90;100940.22;5007578;28;1390;-53
2022/06/04 11:27:26;;;;;;;;;;;;;;;17.46;50.99;100937.13;5055982;28;1083;-53
2022/06/04 11:29:51;;;;;;;;;;;;;;;17.39;50.86;100933.22;5048637;28;1977;-51
2022/06/04 11:32:19;;;;;;;;;;;;;;;17.36;50.50;100936.09;5055657;28;1033;-53
2022/06/04 11:35:03;;;;;;;;;;;;;;;17.19;50.99;100930.22;5056022;28;962;-52
2022/06/04 11:37:40;;;;;;;;;;;;;;;17.21;50.70;100933.59;5046320;28;982;-57
2022/06/04 11:40:21;;;;;;;;;;;;;;;17.31;51.42;100933.78;5035853;28;1038;-54
2022/06/04 11:42:51;;;;;;;;;;;;;;;17.48;50.92;100932.53;5051782;28;974;-56
2022/06/04 11:45:24;;;;;;;;;;;;;;;17.37;51.43;100927.16;5033995;28;1069;-50
2022/06/04 11:47:53;;;;;;;;;;;;;;;17.17;51.33;100918.81;5045053;28;1902;-54
2022/06/04 11:50:21;;;;;;;;;;;;;;;17.05;51.14;100912.56;5043212;28;1037;-57
2022/06/04 11:52:50;;;;;;;;;;;;;;;17.16;51.36;100905.66;5031642;28;1096;-53
2022/06/04 11:55:21;;;;;;;;;;;;;;;17.10;52.01;100913.09;5037596;28;1543;-53
2022/06/04 11:57:54;;;;;;;;;;;;;;;17.01;51.90;100909.31;5037410;28;1061;-53
2022/06/04 12:00:38;;;;;;;;;;;;;;;17.27;52.02;100904.88;5036556;28;913;-55
2022/06/04 12:03:03;;;;;;;;;;;;;;;17.21;51.98;100912.34;5055546;28;1520;-56
2022/06/04 12:05:35;;;;;;;;;;;;;;;17.14;52.13;100900.44;5055439;28;1263;-54
2022/06/04 12:08:04;;;;;;;;;;;;;;;17.08;52.37;100895.56;5053640;28;1960;-52
2022/06/04 12:10:32;;;;;;;;;;;;;;;16.97;52.56;100901.63;5036190;28;1207;-51
2022/06/04 12:13:00;;;;;;;;;;;;;;;16.99;52.51;100899.72;5055128;28;933;-52
2022/06/04 12:15:43;;;;;;;;;;;;;;;17.00;52.65;100894.28;5055084;28;1014;-55
2022/06/04 12:18:27;;;;;;;;;;;;;;;17.30;52.69;100899.34;5054326;28;1076;-53
2022/06/04 12:26:25;;;;;;;;;;;;;;;17.01;53.77;100895.16;5055528;28;1013;-56
2022/06/04 12:28:51;;;;;;;;;;;;;;;17.02;53.66;100892.38;5054946;28;1963;-55
2022/06/04 12:31:45;;;;;;;;;;;;;;;16.98;53.96;100896.22;5053268;28;1023;-53
2022/06/04 12:34:33;;;;;;;;;;;;;;;17.04;53.93;100894.06;5038194;28;1504;-57
2022/06/04 12:36:59;;;;;;;;;;;;;;;17.27;54.49;100900.38;5054756;28;846;-53
2022/06/04 12:39:28;;;;;;;;;;;;;;;17.29;54.35;100897.63;5037315;28;1022;-53
2022/06/04 12:41:54;;;;;;;;;;;;;;;17.04;54.67;100897.59;5037049;28;997;-53
2022/06/04 12:44:27;;;;;;;;;;;;;;;17.11;54.55;100887.38;5054901;28;954;-50
2022/06/04 12:46:52;;;;;;;;;;;;;;;17.05;54.54;100880.66;5054833;28;1033;-51
2022/06/04 12:49:33;;;;;;;;;;;;;;;17.01;54.99;100880.06;5055242;28;1910;-56
2022/06/04 12:52:04;;;;;;;;;;;;;;;17.19;54.16;100878.84;5043706;28;978;-54
2022/06/04 12:54:41;;;;;;;;;;;;;;;17.28;54.55;100879.97;5050144;28;1001;-54
2022/06/04 12:57:25;;;;;;;;;;;;;;;17.42;54.42;100871.81;5029438;28;1117;-50
2022/06/04 12:59:51;;;;;;;;;;;;;;;17.54;54.60;100871.84;5053983;28;1013;-51
2022/06/04 13:02:43;;;;;;;;;;;;;;;17.38;54.66;100871.19;5057077;28;1001;-52
2022/06/04 13:05:10;;;;;;;;;;;;;;;17.33;55.07;100869.84;5048169;28;1201;-49
2022/06/04 13:08:00;;;;;;;;;;;;;;;17.34;55.17;100868.88;5038951;28;1069;-54
2022/06/04 13:10:31;;;;;;;;;;;;;;;17.24;55.50;100874.03;5021274;28;1276;-51
2022/06/04 13:13:01;;;;;;;;;;;;;;;17.27;55.50;100873.81;5052160;28;1013;-53
2022/06/04 13:15:31;;;;;;;;;;;;;;;17.45;55.26;100873.41;5039644;28;990;-52